Flugplatz Wasserkuppe (EDER)

Hier findest Du alle Informationen zum Flugplatz Wasserkuppe (EDER).

Informationen für Piloten zum Flugplatz Wasserkuppe

Hier findest Du alle relevanten Informationen, die Du als Pilot benötigst, um Wasserkuppe anzufliegen.

Flugplatz: Wasserkuppe ICAO-Code: EDER
Frequenz Turm: 118,65 Mhz GAFOR Gebiet: 47
Frequenz Ground: 118,65 Mhz Mogas: nein
Platzrunde: NW 4000 ft Landegebühr: 6 €
Platzhöhe: Sunrise: 03:16 Uhr UTC
Pisten: 06/24 - 670 m x 15 m, ASPH Sunset: 19:18 Uhr UTC

Mitglieder, die in Wasserkuppe fliegen

Flugwetter am Flugplatz Wasserkuppe

Die METAR Information stammen aus EDDE (88.82 km entfernt).

METAR Code:
2024/05/05 14:20
EDDE 051420Z AUTO 23011KT 190V260 9999 FEW039 SCT046 17/07 Q1009 NOSIG

Flugschulen am Flugplatz Wasserkuppe

Am Flugplatz Wasserkuppe gibt es leider keine Flugschule.

Benachbarte Flugplätze und Flugschulen

Es gibt 13 weitere Flugplätze in einem Umkreis von 50 km um den Flugplatz Wasserkuppe.

Jetzt anmelden

Passwort vergessen

Umfrage Archiv

Wie häufig haltet Ihr die Halbkreisflugregel ein?

Eher häufig!
35.7 %
Immer!
31 %
Hin und wieder!
16.5 %
Nie!
9.4 %
Eher selten!
7.5 %
Stimmen: 255 | Diskussion
Anzeige: Roland Aircraft
Statistik Alle Mitglieder

Aktuell sind 31 Besucher online.

Anzeige: EasyVFR